createdAt,value
2019-04-11T00:02:26.802Z,92.90
2019-04-11T00:04:57.225Z,93.10
2019-04-11T00:07:28.002Z,93.50
2019-04-11T00:09:58.859Z,94.00
2019-04-11T00:12:30.598Z,94.00
2019-04-11T00:15:00.914Z,94.20
2019-04-11T00:17:32.444Z,94.90
2019-04-11T00:20:04.116Z,95.60
2019-04-11T00:22:35.376Z,96.20
2019-04-11T00:25:05.946Z,97.50
2019-04-11T00:27:37.223Z,97.70
2019-04-11T00:30:10.104Z,98.10
2019-04-11T00:32:41.442Z,98.50
2019-04-11T00:35:12.242Z,99.00
2019-04-11T00:37:43.433Z,99.20
2019-04-11T00:40:15.174Z,99.40
2019-04-11T00:42:45.507Z,99.60
2019-04-11T00:45:15.939Z,99.90
2019-04-11T00:47:47.032Z,99.90
2019-04-11T00:50:17.397Z,99.90
2019-04-11T00:52:47.947Z,99.90
2019-04-11T00:55:19.556Z,99.90
2019-04-11T00:57:49.961Z,99.90
2019-04-11T01:00:20.938Z,99.90
2019-04-11T01:02:51.354Z,99.90
2019-04-11T01:05:21.739Z,99.90
2019-04-11T01:07:53.108Z,99.90
2019-04-11T01:10:24.544Z,99.90
2019-04-11T01:12:55.052Z,99.90
2019-04-11T01:15:25.434Z,99.90
2019-04-11T01:17:55.970Z,99.90
2019-04-11T01:20:27.187Z,99.90
2019-04-11T01:22:58.434Z,99.90
2019-04-11T01:25:28.871Z,99.90
2019-04-11T01:28:00.470Z,99.90
2019-04-11T01:30:37.421Z,99.90
2019-04-11T01:33:07.823Z,99.90
2019-04-11T01:35:39.447Z,99.90
2019-04-11T01:38:10.837Z,99.90
2019-04-11T01:40:42.251Z,99.90
2019-04-11T01:43:13.531Z,99.90
2019-04-11T01:45:44.074Z,99.90
2019-04-11T01:48:19.599Z,99.90
2019-04-11T01:50:51.756Z,99.90
2019-04-11T01:53:23.348Z,99.90
2019-04-11T01:55:53.729Z,99.90
2019-04-11T01:58:24.625Z,99.90
2019-04-11T02:01:00.718Z,99.90
2019-04-11T02:03:33.078Z,99.90
2019-04-11T02:06:03.537Z,99.90
2019-04-11T02:08:33.901Z,99.90
2019-04-11T02:11:05.395Z,99.90
2019-04-11T02:13:36.492Z,99.90
2019-04-11T02:16:06.875Z,99.90
2019-04-11T02:18:37.358Z,99.90
2019-04-11T02:21:07.791Z,99.90
2019-04-11T02:23:55.969Z,99.90
2019-04-11T02:26:28.010Z,99.90
2019-04-11T02:28:59.339Z,99.90
2019-04-11T02:31:30.613Z,99.90
2019-04-11T02:34:02.450Z,99.90
2019-04-11T02:36:34.252Z,99.90
2019-04-11T02:39:12.926Z,99.90
2019-04-11T02:41:42.207Z,99.90
2019-04-11T02:44:30.682Z,99.90
2019-04-11T02:46:55.841Z,99.90
2019-04-11T02:49:17.042Z,99.90
2019-04-11T02:51:49.347Z,99.90
2019-04-11T02:54:22.316Z,99.90
2019-04-11T02:56:54.577Z,99.90
2019-04-11T02:59:25.434Z,99.90
2019-04-11T03:01:58.053Z,99.90
2019-04-11T03:04:28.951Z,99.90
2019-04-11T03:07:00.593Z,99.90
2019-04-11T03:09:44.056Z,99.90
2019-04-11T03:12:15.656Z,99.90
2019-04-11T03:15:05.645Z,99.90
2019-04-11T03:17:24.955Z,99.90
2019-04-11T03:20:17.062Z,99.90
2019-04-11T03:22:38.401Z,99.90
2019-04-11T03:25:09.074Z,99.90
2019-04-11T03:27:40.926Z,99.90
2019-04-11T03:30:16.123Z,99.90
2019-04-11T03:38:12.536Z,99.90
2019-04-11T03:40:38.665Z,99.90
2019-04-11T03:43:07.890Z,99.90
2019-04-11T03:45:48.045Z,99.90
2019-04-11T03:48:12.498Z,99.90
2019-04-11T03:50:32.836Z,99.90
2019-04-11T03:53:06.096Z,99.90
2019-04-11T03:55:36.919Z,99.90
2019-04-11T03:58:08.538Z,99.90
2019-04-11T04:00:43.752Z,99.90
2019-04-11T04:03:13.468Z,99.90
2019-04-11T04:05:44.749Z,99.90
2019-04-11T04:08:15.569Z,99.90
2019-04-11T04:11:04.158Z,99.90
2019-04-11T04:13:38.786Z,99.90
2019-04-11T04:16:24.682Z,99.90
2019-04-11T04:18:51.804Z,99.90
2019-04-11T04:21:28.815Z,99.90
2019-04-11T04:24:02.231Z,99.90
2019-04-11T04:26:33.711Z,99.90
2019-04-11T04:29:04.425Z,99.90
2019-04-11T04:31:35.177Z,99.90
2019-04-11T04:34:07.183Z,99.90
2019-04-11T04:36:37.923Z,99.90
2019-04-11T04:39:08.711Z,99.90
2019-04-11T04:41:47.599Z,99.90
2019-04-11T04:44:17.110Z,99.90
2019-04-11T04:47:00.158Z,99.90
2019-04-11T04:49:21.326Z,99.90
2019-04-11T04:51:53.307Z,99.90
2019-04-11T04:54:24.144Z,99.90
2019-04-11T04:56:55.202Z,99.90
2019-04-11T04:59:25.643Z,99.90
2019-04-11T05:01:56.004Z,99.90
2019-04-11T05:04:27.544Z,99.90
2019-04-11T05:06:59.052Z,99.90
2019-04-11T05:09:29.860Z,99.90
2019-04-11T05:12:01.380Z,99.90
2019-04-11T05:14:32.899Z,99.90
2019-04-11T05:17:03.244Z,99.90
2019-04-11T05:19:34.119Z,99.90
2019-04-11T05:22:04.553Z,99.90
2019-04-11T05:24:34.942Z,99.90
2019-04-11T05:27:06.260Z,99.90
2019-04-11T05:29:37.634Z,99.90
2019-04-11T05:32:09.272Z,99.90
2019-04-11T05:34:39.710Z,99.90
2019-04-11T05:37:11.100Z,99.90
2019-04-11T05:39:42.457Z,99.90
2019-04-11T05:42:15.866Z,99.90
2019-04-11T05:44:45.161Z,99.90
2019-04-11T05:47:18.504Z,99.90
2019-04-11T05:49:55.204Z,99.90
2019-04-11T05:52:27.368Z,99.90
2019-04-11T05:55:00.612Z,99.90
2019-04-11T05:57:35.441Z,99.90
2019-04-11T06:00:05.550Z,99.90
2019-04-11T06:02:41.568Z,99.90
2019-04-11T06:05:23.775Z,99.90
2019-04-11T06:07:57.260Z,99.90
2019-04-11T06:10:33.912Z,99.90
2019-04-11T06:13:14.704Z,99.90
2019-04-11T06:15:49.401Z,99.90
2019-04-11T06:18:43.179Z,99.90
2019-04-11T06:21:17.917Z,99.90
2019-04-11T06:23:49.968Z,98.80
2019-04-11T06:26:30.785Z,96.70
2019-04-11T06:29:17.160Z,93.70
2019-04-11T06:31:48.060Z,90.20
2019-04-11T06:34:18.426Z,88.20
2019-04-11T06:36:57.141Z,80.00
2019-04-11T06:39:29.519Z,75.20
2019-04-11T06:42:01.573Z,72.20
2019-04-11T06:44:37.675Z,70.10
2019-04-11T06:47:10.379Z,67.50
2019-04-11T06:49:48.877Z,66.60
2019-04-11T06:52:19.415Z,64.50
2019-04-11T06:55:10.735Z,61.90
2019-04-11T06:57:43.160Z,60.90
2019-04-11T07:00:16.981Z,60.80
2019-04-11T07:02:55.404Z,59.80
2019-04-11T07:05:28.853Z,59.40
2019-04-11T07:08:02.127Z,56.70
2019-04-11T07:10:34.329Z,55.40
2019-04-11T07:13:07.751Z,52.90
2019-04-11T07:15:39.888Z,53.10
2019-04-11T07:18:29.090Z,55.40
2019-04-11T07:21:19.121Z,54.20
2019-04-11T07:24:08.040Z,51.60
2019-04-11T07:26:41.632Z,49.20
2019-04-11T07:29:25.897Z,47.20
2019-04-11T07:32:11.694Z,46.60
2019-04-11T07:35:02.361Z,50.50
2019-04-11T07:37:34.461Z,51.90
2019-04-11T07:40:17.739Z,47.50
2019-04-11T07:42:53.185Z,45.30
2019-04-11T07:45:35.302Z,43.80
2019-04-11T07:48:08.744Z,41.60
2019-04-11T07:50:39.910Z,39.70
2019-04-11T07:53:12.882Z,37.80
2019-04-11T07:55:44.576Z,39.50
2019-04-11T07:58:22.409Z,40.70
2019-04-11T08:01:10.615Z,39.30
2019-04-11T08:03:45.123Z,37.10
2019-04-11T08:12:31.770Z,33.90
2019-04-11T08:15:04.878Z,33.70
2019-04-11T08:17:41.714Z,34.60
2019-04-11T08:20:29.083Z,32.60
2019-04-11T08:23:00.288Z,32.20
2019-04-11T08:25:50.650Z,32.30
2019-04-11T08:28:21.106Z,31.00
2019-04-11T08:30:53.131Z,34.90
2019-04-11T08:33:25.137Z,38.80
2019-04-11T08:36:13.732Z,42.80
2019-04-11T08:38:44.720Z,45.90
2019-04-11T08:41:31.709Z,49.80
2019-04-11T08:44:03.626Z,51.40
2019-04-11T08:46:39.256Z,54.00
2019-04-11T08:49:11.360Z,54.70
2019-04-11T08:51:43.252Z,56.60
2019-04-11T08:54:24.348Z,57.60
2019-04-11T08:56:55.746Z,59.80
2019-04-11T08:59:44.425Z,59.70
2019-04-11T09:02:16.332Z,52.90
2019-04-11T09:05:10.328Z,48.00
2019-04-11T09:07:38.060Z,43.10
2019-04-11T09:10:26.327Z,41.40
2019-04-11T09:12:58.624Z,45.20
2019-04-11T09:15:47.013Z,78.70
2019-04-11T09:18:19.667Z,69.80
2019-04-11T09:21:07.880Z,66.40
2019-04-11T09:23:38.995Z,68.30
2019-04-11T09:26:27.697Z,71.40
2019-04-11T09:28:58.397Z,71.50
2019-04-11T09:31:49.130Z,71.70
2019-04-11T09:34:27.923Z,71.20
2019-04-11T09:37:03.231Z,73.20
2019-04-11T09:39:41.582Z,72.60
2019-04-11T09:42:45.053Z,73.00
2019-04-11T09:45:20.106Z,74.00
2019-04-11T09:48:14.746Z,72.10
2019-04-11T09:51:00.900Z,82.70
2019-04-11T09:53:31.873Z,48.60
2019-04-11T09:56:20.806Z,39.80
2019-04-11T09:58:52.855Z,33.60
2019-04-11T10:01:41.252Z,33.60
2019-04-11T10:04:14.373Z,33.50
2019-04-11T10:06:48.791Z,45.10
2019-04-11T10:09:22.012Z,50.70
2019-04-11T10:11:54.920Z,47.40
2019-04-11T10:14:25.832Z,49.50
2019-04-11T10:17:14.876Z,53.10
2019-04-11T10:19:46.460Z,53.00
2019-04-11T10:22:18.608Z,55.10
2019-04-11T10:25:00.997Z,54.00
2019-04-11T10:27:38.965Z,53.90
2019-04-11T10:30:27.363Z,52.30
2019-04-11T10:33:08.755Z,51.00
2019-04-11T10:35:58.966Z,52.20
2019-04-11T10:38:29.268Z,51.40
2019-04-11T10:41:01.305Z,50.40
2019-04-11T10:43:34.213Z,52.50
2019-04-11T10:46:19.582Z,52.60
2019-04-11T10:48:52.790Z,52.90
2019-04-11T10:51:31.757Z,51.50
2019-04-11T10:54:04.320Z,53.20
2019-04-11T10:56:39.231Z,53.00
2019-04-11T10:59:10.194Z,54.70
2019-04-11T11:01:58.473Z,53.20
2019-04-11T11:04:36.727Z,53.00
2019-04-11T11:07:10.201Z,54.40
2019-04-11T11:09:58.803Z,55.30
2019-04-11T11:12:47.598Z,55.40
2019-04-11T11:15:25.774Z,56.00
2019-04-11T11:20:55.240Z,55.60
2019-04-11T11:23:40.732Z,55.60
2019-04-11T11:26:12.763Z,55.30
2019-04-11T11:29:07.377Z,55.10
2019-04-11T11:31:40.883Z,54.20
2019-04-11T11:34:17.381Z,56.30
2019-04-11T11:36:54.697Z,55.00
2019-04-11T11:39:26.874Z,54.50
2019-04-11T11:42:15.548Z,56.10
2019-04-11T11:44:57.268Z,55.30
2019-04-11T11:47:45.953Z,56.10
2019-04-11T11:50:23.290Z,53.60
2019-04-11T11:53:13.225Z,53.60
2019-04-11T11:55:45.407Z,53.60
2019-04-11T11:58:19.562Z,54.20
2019-04-11T12:00:53.540Z,54.00
2019-04-11T12:03:40.805Z,51.70
2019-04-11T12:06:12.569Z,52.90
2019-04-11T12:09:02.385Z,54.80
2019-04-11T12:11:36.075Z,53.70
2019-04-11T12:14:20.173Z,54.40
2019-04-11T12:17:11.592Z,53.90
2019-04-11T12:19:52.301Z,55.50
2019-04-11T12:22:16.334Z,56.90
2019-04-11T12:24:48.371Z,57.20
2019-04-11T12:27:37.120Z,59.30
2019-04-11T12:30:10.963Z,59.90
2019-04-11T12:32:46.674Z,59.40
2019-04-11T12:35:19.898Z,60.80
2019-04-11T12:37:53.360Z,59.80
2019-04-11T12:40:25.674Z,62.80
2019-04-11T12:42:57.561Z,61.40
2019-04-11T12:45:45.795Z,60.40
2019-04-11T12:48:16.271Z,58.80
2019-04-11T12:50:56.972Z,57.70
2019-04-11T12:53:27.594Z,58.70
2019-04-11T12:55:59.645Z,58.30
2019-04-11T12:58:31.671Z,56.60
2019-04-11T13:01:09.812Z,56.70
2019-04-11T13:03:47.963Z,57.20
2019-04-11T13:06:34.588Z,58.10
2019-04-11T13:09:05.669Z,58.60
2019-04-11T13:11:41.644Z,59.00
2019-04-11T13:14:19.440Z,58.90
2019-04-11T13:16:54.182Z,60.10
2019-04-11T13:19:32.156Z,59.10
2019-04-11T13:22:07.170Z,59.20
2019-04-11T13:24:42.103Z,58.40
2019-04-11T13:27:14.177Z,56.60
2019-04-11T13:29:46.172Z,58.50
2019-04-11T13:32:36.481Z,57.50
2019-04-11T13:35:26.918Z,59.00
2019-04-11T13:38:11.199Z,58.70
2019-04-11T13:41:11.695Z,58.60
2019-04-11T13:43:43.886Z,59.90
2019-04-11T13:46:25.793Z,61.80
2019-04-11T13:49:06.804Z,62.60
2019-04-11T13:51:44.683Z,65.70
2019-04-11T13:54:32.912Z,63.80
2019-04-11T13:57:10.997Z,64.30
2019-04-11T14:00:01.525Z,65.70
2019-04-11T14:02:50.939Z,65.50
2019-04-11T14:05:19.482Z,64.30
2019-04-11T14:07:51.450Z,66.30
2019-04-11T14:10:22.892Z,64.40
2019-04-11T14:12:57.547Z,67.30
2019-04-11T14:15:29.520Z,67.10
2019-04-11T14:18:01.754Z,69.80
2019-04-11T14:20:33.830Z,67.90
2019-04-11T14:23:06.726Z,67.80
2019-04-11T14:25:51.168Z,70.00
2019-04-11T14:28:23.283Z,69.80
2019-04-11T14:30:55.277Z,70.50
2019-04-11T14:33:27.355Z,71.60
2019-04-11T14:36:12.507Z,72.30
2019-04-11T14:38:47.699Z,72.20
2019-04-11T14:41:30.373Z,73.80
2019-04-11T14:44:03.405Z,73.60
2019-04-11T14:46:51.919Z,73.90
2019-04-11T14:49:22.263Z,74.40
2019-04-11T14:52:10.455Z,74.50
2019-04-11T14:54:42.455Z,77.90
2019-04-11T14:57:14.473Z,75.80
2019-04-11T14:59:46.472Z,73.70
2019-04-11T15:02:21.916Z,74.50
2019-04-11T15:05:14.406Z,72.20
2019-04-11T15:07:46.089Z,73.40
2019-04-11T15:10:30.435Z,70.00
2019-04-11T15:13:00.816Z,71.20
2019-04-11T15:15:48.908Z,71.30
2019-04-11T15:18:19.664Z,71.40
2019-04-11T15:20:55.531Z,72.50
2019-04-11T15:23:25.374Z,74.80
2019-04-11T15:26:13.715Z,75.40
2019-04-11T15:28:45.735Z,76.30
2019-04-11T15:31:39.495Z,79.60
2019-04-11T15:34:18.689Z,80.90
2019-04-11T15:37:06.942Z,81.30
2019-04-11T15:39:47.914Z,79.50
2019-04-11T15:42:40.217Z,80.70
2019-04-11T15:45:16.577Z,80.70
2019-04-11T15:47:51.293Z,81.70
2019-04-11T15:50:39.776Z,82.50
2019-04-11T15:53:11.674Z,80.10
2019-04-11T15:55:43.690Z,81.40
2019-04-11T15:58:14.047Z,82.50
2019-04-11T16:00:55.477Z,82.80
2019-04-11T16:03:26.932Z,85.50
2019-04-11T16:06:05.144Z,86.00
2019-04-11T16:08:39.435Z,87.60
2019-04-11T16:11:16.470Z,85.10
2019-04-11T16:13:48.454Z,86.00
2019-04-11T16:16:20.509Z,85.80
2019-04-11T16:19:07.512Z,85.20
2019-04-11T16:21:48.335Z,86.90
2019-04-11T16:24:35.203Z,89.00
2019-04-11T16:27:08.288Z,90.50
2019-04-11T16:29:43.675Z,88.40
2019-04-11T16:32:15.219Z,90.40
2019-04-11T16:34:59.537Z,91.20
2019-04-11T16:37:31.042Z,90.70
2019-04-11T16:40:23.137Z,90.90
2019-04-11T16:42:54.923Z,89.80
2019-04-11T16:45:42.522Z,91.40
2019-04-11T16:48:13.957Z,92.50
2019-04-11T16:50:44.345Z,94.10
2019-04-11T16:53:14.686Z,99.90
2019-04-11T16:55:45.045Z,99.90
2019-04-11T16:58:19.325Z,99.90
2019-04-11T17:00:52.142Z,99.90
2019-04-11T17:03:19.743Z,99.90
2019-04-11T17:06:00.984Z,99.90
2019-04-11T17:08:35.709Z,99.90
2019-04-11T17:11:07.709Z,99.90
2019-04-11T17:13:50.829Z,99.90
2019-04-11T17:16:21.450Z,99.90
2019-04-11T17:18:52.031Z,99.90
2019-04-11T17:21:23.334Z,99.90
2019-04-11T17:23:53.887Z,99.90
2019-04-11T17:26:24.304Z,96.50
2019-04-11T17:29:02.374Z,95.00
2019-04-11T17:31:33.084Z,95.80
2019-04-11T17:34:05.644Z,96.00
2019-04-11T17:36:35.630Z,96.10
2019-04-11T17:39:07.718Z,96.20
2019-04-11T17:41:41.763Z,96.40
2019-04-11T17:44:10.566Z,96.20
2019-04-11T17:46:40.912Z,96.30
2019-04-11T17:49:11.474Z,95.30
2019-04-11T17:51:55.324Z,94.60
2019-04-11T17:54:16.568Z,94.90
2019-04-11T17:56:46.991Z,95.10
2019-04-11T17:59:17.363Z,96.30
2019-04-11T18:01:47.795Z,96.70
2019-04-11T18:04:18.145Z,96.90
2019-04-11T18:06:48.501Z,97.50
2019-04-11T18:09:20.438Z,98.10
2019-04-11T18:11:50.927Z,99.10
2019-04-11T18:14:21.307Z,99.40
2019-04-11T18:16:51.658Z,99.70
2019-04-11T18:19:22.955Z,99.90
2019-04-11T18:21:53.311Z,99.90
2019-04-11T18:24:23.687Z,99.90
2019-04-11T18:26:54.045Z,99.90
2019-04-11T18:29:25.254Z,99.90
2019-04-11T18:31:55.909Z,99.90
2019-04-11T18:34:26.242Z,99.90
2019-04-11T18:36:56.818Z,99.90
2019-04-11T18:39:27.190Z,99.90
2019-04-11T18:41:57.716Z,99.90
2019-04-11T18:44:28.095Z,99.90
2019-04-11T18:46:58.485Z,99.90
2019-04-11T18:49:28.907Z,99.90
2019-04-11T18:51:59.349Z,99.90
2019-04-11T18:54:29.702Z,99.90
2019-04-11T18:57:00.148Z,99.90
2019-04-11T18:59:33.794Z,99.90
2019-04-11T19:02:02.578Z,99.90
2019-04-11T19:04:33.123Z,99.90
2019-04-11T19:07:05.010Z,99.90
2019-04-11T19:09:35.525Z,99.90
2019-04-11T19:12:07.717Z,99.90
2019-04-11T19:14:38.338Z,99.90
2019-04-11T19:17:08.928Z,99.90
2019-04-11T19:19:39.278Z,99.90
2019-04-11T19:22:09.662Z,99.90
2019-04-11T19:24:42.394Z,99.90
2019-04-11T19:27:13.972Z,99.90
2019-04-11T19:29:44.157Z,99.90
2019-04-11T19:32:14.676Z,99.90
2019-04-11T19:34:45.037Z,99.90
2019-04-11T19:37:15.415Z,99.90
2019-04-11T19:39:46.002Z,99.90
2019-04-11T19:42:19.591Z,99.90
2019-04-11T19:44:49.694Z,99.90
2019-04-11T19:47:22.375Z,99.90
2019-04-11T19:49:53.732Z,99.90
2019-04-11T19:52:24.110Z,99.90
2019-04-11T19:54:56.099Z,99.90
2019-04-11T19:57:26.481Z,99.90
2019-04-11T19:59:56.837Z,99.90
2019-04-11T20:02:27.211Z,99.90
2019-04-11T20:04:58.341Z,99.90
2019-04-11T20:07:28.842Z,99.90
2019-04-11T20:10:00.910Z,99.90
2019-04-11T20:12:31.273Z,99.90
2019-04-11T20:15:04.698Z,99.90
2019-04-11T20:17:44.148Z,99.90
2019-04-11T20:20:08.044Z,99.90
2019-04-11T20:22:39.826Z,99.90
2019-04-11T20:25:10.534Z,99.90
2019-04-11T20:27:40.919Z,99.90
2019-04-11T20:30:11.397Z,99.90
2019-04-11T20:32:41.809Z,99.90
2019-04-11T20:35:12.165Z,99.90
2019-04-11T20:37:44.710Z,99.90
2019-04-11T20:40:17.430Z,99.90
2019-04-11T20:42:46.676Z,99.90
2019-04-11T20:45:17.027Z,99.90
2019-04-11T20:47:47.473Z,99.90
2019-04-11T20:50:17.828Z,99.90
2019-04-11T20:52:48.239Z,99.90
2019-04-11T20:55:18.589Z,99.90
2019-04-11T20:57:48.973Z,99.90
2019-04-11T21:00:19.667Z,99.90
2019-04-11T21:02:50.051Z,99.90
2019-04-11T21:05:20.436Z,99.90
2019-04-11T21:07:50.819Z,99.90
2019-04-11T21:10:21.173Z,99.90
2019-04-11T21:12:51.549Z,99.90
2019-04-11T21:15:22.092Z,99.90
2019-04-11T21:17:53.600Z,99.90
2019-04-11T21:20:24.523Z,99.90
2019-04-11T21:22:54.904Z,99.90
2019-04-11T21:25:26.109Z,99.90
2019-04-11T21:27:59.041Z,99.90
2019-04-11T21:30:31.196Z,99.90
2019-04-11T21:33:03.620Z,99.90
2019-04-11T21:35:34.023Z,99.90
2019-04-11T21:38:04.437Z,99.90
2019-04-11T21:40:35.954Z,99.90
2019-04-11T21:43:06.928Z,99.90
2019-04-11T21:45:37.286Z,99.90
2019-04-11T21:48:07.663Z,99.90
2019-04-11T21:50:40.499Z,99.90
2019-04-11T21:53:36.419Z,99.90
2019-04-11T21:56:01.499Z,99.90
2019-04-11T21:58:31.973Z,99.90
2019-04-11T22:01:16.837Z,99.90
2019-04-11T22:03:49.090Z,99.90
2019-04-11T22:06:20.229Z,99.90
2019-04-11T22:08:50.578Z,99.90
2019-04-11T22:11:21.903Z,99.90
2019-04-11T22:13:52.272Z,99.90
2019-04-11T22:16:22.622Z,99.90
2019-04-11T22:18:52.999Z,99.90
2019-04-11T22:21:23.351Z,99.90
2019-04-11T22:23:53.728Z,99.90
2019-04-11T22:26:24.147Z,99.90
2019-04-11T22:28:55.137Z,99.90
2019-04-11T22:31:25.958Z,99.90
2019-04-11T22:33:58.419Z,99.90
2019-04-11T22:36:30.748Z,99.90
2019-04-11T22:39:02.287Z,99.90
2019-04-11T22:41:34.256Z,99.90
2019-04-11T22:44:07.763Z,99.90
2019-04-11T22:46:37.756Z,99.90
2019-04-11T22:49:09.408Z,99.90
2019-04-11T22:51:42.679Z,99.90
2019-04-11T22:54:13.696Z,99.90
2019-04-11T22:56:45.277Z,99.90
2019-04-11T22:59:15.655Z,99.90
2019-04-11T23:01:47.083Z,99.90
2019-04-11T23:04:19.056Z,99.90
2019-04-11T23:06:49.389Z,99.90
2019-04-11T23:09:19.839Z,99.90
2019-04-11T23:11:50.199Z,99.90
2019-04-11T23:14:20.585Z,99.90
2019-04-11T23:16:50.935Z,99.90
2019-04-11T23:19:21.313Z,99.90
2019-04-11T23:21:51.688Z,99.90
2019-04-11T23:24:22.056Z,99.90
2019-04-11T23:26:52.408Z,99.90
2019-04-11T23:29:22.784Z,99.90
2019-04-11T23:31:53.139Z,99.90
2019-04-11T23:34:23.509Z,99.90
2019-04-11T23:36:53.860Z,99.90
2019-04-11T23:39:24.239Z,99.90
2019-04-11T23:41:54.589Z,99.90
2019-04-11T23:44:25.030Z,99.90
2019-04-11T23:46:55.379Z,99.90
2019-04-11T23:49:25.824Z,99.90
2019-04-11T23:51:57.148Z,99.90
2019-04-11T23:54:29.221Z,99.90
2019-04-11T23:57:00.955Z,99.90
2019-04-11T23:59:32.914Z,99.90
